To NAV CANADA Home Page Login to a new session Search on AWWS site Feedback and Comments Disclaimer Vers la page française équivalente Tips FAQ What's new on the site To the Forecasts and Observations / NOTAM section To "File a Flight Plan" website Publications and other links Update of the User's profile FIC Telephone Numbers My Weather Data Folder Route Weather Data Regional Weather Data Local Weather Data To the Forecasts and Observations / NOTAM section
Request Generated 03/23/2017 at 00:11:48 UTC . Weather information available at that time is displayed.

METAR/TAF

CAPE DORSET/NU    (show WxCam)

METAR CYTE 230000Z AUTO VRB05KT 9SM CLR M22/M26 A2979 RMK SLP095=
METAR CYTE 222300Z AUTO 28012KT 9SM CLR M22/M25 A2978 RMK SLP093=
METAR CYTE 222200Z AUTO 27017KT 9SM CLR M20/M25 A2975 RMK SLP083=

TAF CYTE 221838Z 2219/2307 27015KT P6SM SKC
BECMG 2300/2302 26010KT
RMK NXT FCST BY 230100Z=
Your time UTC time
Weather data provided by Environment Canada and NAV CANADA